sensor_id;sensor_type;location;lat;lon;timestamp;P1;durP1;ratioP1;P2;durP2;ratioP2
69970;SDS011;57301;50.328;8.542;2023-12-20T00:01:01;2.10;;;1.20;;
69970;SDS011;57301;50.328;8.542;2023-12-20T00:03:28;3.10;;;1.20;;
69970;SDS011;57301;50.328;8.542;2023-12-20T00:06:06;2.17;;;1.20;;
69970;SDS011;57301;50.328;8.542;2023-12-20T00:08:33;2.65;;;1.20;;
69970;SDS011;57301;50.328;8.542;2023-12-20T00:10:59;2.10;;;1.10;;
69970;SDS011;57301;50.328;8.542;2023-12-20T00:13:26;2.00;;;1.10;;
69970;SDS011;57301;50.328;8.542;2023-12-20T00:15:52;2.30;;;1.20;;
69970;SDS011;57301;50.328;8.542;2023-12-20T00:18:19;2.30;;;1.10;;
69970;SDS011;57301;50.328;8.542;2023-12-20T00:20:46;2.10;;;1.15;;
69970;SDS011;57301;50.328;8.542;2023-12-20T00:23:12;2.35;;;1.25;;
69970;SDS011;57301;50.328;8.542;2023-12-20T00:25:39;3.95;;;1.20;;
69970;SDS011;57301;50.328;8.542;2023-12-20T00:28:05;2.43;;;1.40;;
69970;SDS011;57301;50.328;8.542;2023-12-20T00:30:32;2.10;;;1.10;;
69970;SDS011;57301;50.328;8.542;2023-12-20T00:32:59;2.55;;;1.10;;
69970;SDS011;57301;50.328;8.542;2023-12-20T00:35:26;2.20;;;1.00;;
69970;SDS011;57301;50.328;8.542;2023-12-20T00:37:53;2.50;;;1.40;;
69970;SDS011;57301;50.328;8.542;2023-12-20T00:40:19;2.30;;;1.20;;
69970;SDS011;57301;50.328;8.542;2023-12-20T00:42:47;2.10;;;1.10;;
69970;SDS011;57301;50.328;8.542;2023-12-20T00:45:14;2.00;;;1.13;;
69970;SDS011;57301;50.328;8.542;2023-12-20T00:47:41;2.33;;;1.30;;
69970;SDS011;57301;50.328;8.542;2023-12-20T00:50:08;1.90;;;1.10;;
69970;SDS011;57301;50.328;8.542;2023-12-20T00:52:35;1.97;;;1.20;;
69970;SDS011;57301;50.328;8.542;2023-12-20T00:55:02;2.20;;;1.17;;
69970;SDS011;57301;50.328;8.542;2023-12-20T00:57:30;1.80;;;1.10;;
69970;SDS011;57301;50.328;8.542;2023-12-20T00:59:57;2.00;;;1.15;;
69970;SDS011;57301;50.328;8.542;2023-12-20T01:02:23;2.00;;;1.30;;
69970;SDS011;57301;50.328;8.542;2023-12-20T01:04:50;2.03;;;1.20;;
69970;SDS011;57301;50.328;8.542;2023-12-20T01:07:16;2.17;;;1.15;;
69970;SDS011;57301;50.328;8.542;2023-12-20T01:09:43;1.98;;;1.10;;
69970;SDS011;57301;50.328;8.542;2023-12-20T01:12:10;2.38;;;1.10;;
69970;SDS011;57301;50.328;8.542;2023-12-20T01:14:37;1.90;;;1.20;;
69970;SDS011;57301;50.328;8.542;2023-12-20T01:17:03;1.83;;;1.00;;
69970;SDS011;57301;50.328;8.542;2023-12-20T01:19:30;2.72;;;1.20;;
69970;SDS011;57301;50.328;8.542;2023-12-20T01:21:56;2.20;;;1.10;;
69970;SDS011;57301;50.328;8.542;2023-12-20T01:24:23;2.00;;;1.00;;
69970;SDS011;57301;50.328;8.542;2023-12-20T01:26:49;2.70;;;1.10;;
69970;SDS011;57301;50.328;8.542;2023-12-20T01:29:16;2.13;;;1.00;;
69970;SDS011;57301;50.328;8.542;2023-12-20T01:31:42;2.10;;;1.10;;
69970;SDS011;57301;50.328;8.542;2023-12-20T01:34:09;2.30;;;1.30;;
69970;SDS011;57301;50.328;8.542;2023-12-20T01:36:36;3.05;;;1.23;;
69970;SDS011;57301;50.328;8.542;2023-12-20T01:39:02;2.00;;;1.20;;
69970;SDS011;57301;50.328;8.542;2023-12-20T01:41:33;3.77;;;1.30;;
69970;SDS011;57301;50.328;8.542;2023-12-20T01:43:59;2.17;;;1.30;;
69970;SDS011;57301;50.328;8.542;2023-12-20T01:46:26;2.20;;;1.40;;
69970;SDS011;57301;50.328;8.542;2023-12-20T01:48:53;3.03;;;1.20;;
69970;SDS011;57301;50.328;8.542;2023-12-20T01:51:19;2.03;;;1.20;;
69970;SDS011;57301;50.328;8.542;2023-12-20T01:53:47;3.10;;;1.20;;
69970;SDS011;57301;50.328;8.542;2023-12-20T01:56:14;2.08;;;1.30;;
69970;SDS011;57301;50.328;8.542;2023-12-20T01:58:45;2.20;;;1.30;;
69970;SDS011;57301;50.328;8.542;2023-12-20T02:01:13;2.45;;;1.40;;
69970;SDS011;57301;50.328;8.542;2023-12-20T02:03:41;2.10;;;1.33;;
69970;SDS011;57301;50.328;8.542;2023-12-20T02:06:08;2.77;;;1.30;;
69970;SDS011;57301;50.328;8.542;2023-12-20T02:08:36;2.80;;;1.30;;
69970;SDS011;57301;50.328;8.542;2023-12-20T02:11:02;2.20;;;1.30;;
69970;SDS011;57301;50.328;8.542;2023-12-20T02:13:31;2.30;;;1.40;;
69970;SDS011;57301;50.328;8.542;2023-12-20T02:15:58;2.10;;;1.38;;
69970;SDS011;57301;50.328;8.542;2023-12-20T02:18:25;2.60;;;1.20;;
69970;SDS011;57301;50.328;8.542;2023-12-20T02:20:52;1.90;;;1.00;;
69970;SDS011;57301;50.328;8.542;2023-12-20T02:23:19;2.13;;;1.25;;
69970;SDS011;57301;50.328;8.542;2023-12-20T02:25:46;1.92;;;1.20;;
69970;SDS011;57301;50.328;8.542;2023-12-20T02:28:13;2.30;;;1.10;;
69970;SDS011;57301;50.328;8.542;2023-12-20T02:30:39;2.03;;;1.13;;
69970;SDS011;57301;50.328;8.542;2023-12-20T02:33:07;3.00;;;1.33;;
69970;SDS011;57301;50.328;8.542;2023-12-20T02:35:38;2.10;;;1.13;;
69970;SDS011;57301;50.328;8.542;2023-12-20T02:38:04;2.15;;;1.20;;
69970;SDS011;57301;50.328;8.542;2023-12-20T02:40:31;2.10;;;1.30;;
69970;SDS011;57301;50.328;8.542;2023-12-20T02:42:58;2.40;;;1.27;;
69970;SDS011;57301;50.328;8.542;2023-12-20T02:45:25;2.33;;;1.40;;
69970;SDS011;57301;50.328;8.542;2023-12-20T02:47:52;2.22;;;1.17;;
69970;SDS011;57301;50.328;8.542;2023-12-20T02:50:19;2.20;;;1.27;;
69970;SDS011;57301;50.328;8.542;2023-12-20T02:52:45;2.20;;;1.30;;
69970;SDS011;57301;50.328;8.542;2023-12-20T02:55:12;2.60;;;1.50;;
69970;SDS011;57301;50.328;8.542;2023-12-20T02:57:39;2.15;;;1.25;;
69970;SDS011;57301;50.328;8.542;2023-12-20T03:00:09;2.28;;;1.40;;
69970;SDS011;57301;50.328;8.542;2023-12-20T03:02:36;2.40;;;1.30;;
69970;SDS011;57301;50.328;8.542;2023-12-20T03:05:03;2.20;;;1.30;;
69970;SDS011;57301;50.328;8.542;2023-12-20T03:07:30;3.20;;;1.80;;
69970;SDS011;57301;50.328;8.542;2023-12-20T03:09:57;2.33;;;1.33;;
69970;SDS011;57301;50.328;8.542;2023-12-20T03:12:43;2.28;;;1.38;;
69970;SDS011;57301;50.328;8.542;2023-12-20T03:15:10;2.20;;;1.40;;
69970;SDS011;57301;50.328;8.542;2023-12-20T03:17:36;2.60;;;1.55;;
69970;SDS011;57301;50.328;8.542;2023-12-20T03:20:03;2.40;;;1.30;;
69970;SDS011;57301;50.328;8.542;2023-12-20T03:22:30;2.35;;;1.40;;
69970;SDS011;57301;50.328;8.542;2023-12-20T03:24:57;2.30;;;1.50;;
69970;SDS011;57301;50.328;8.542;2023-12-20T03:27:25;2.72;;;1.55;;
69970;SDS011;57301;50.328;8.542;2023-12-20T03:29:51;2.75;;;1.70;;
69970;SDS011;57301;50.328;8.542;2023-12-20T03:32:18;2.50;;;1.80;;
69970;SDS011;57301;50.328;8.542;2023-12-20T03:34:44;3.67;;;1.88;;
69970;SDS011;57301;50.328;8.542;2023-12-20T03:37:11;3.05;;;1.98;;
69970;SDS011;57301;50.328;8.542;2023-12-20T03:39:37;3.53;;;2.03;;
69970;SDS011;57301;50.328;8.542;2023-12-20T03:42:04;3.63;;;2.05;;
69970;SDS011;57301;50.328;8.542;2023-12-20T03:44:30;4.37;;;2.10;;
69970;SDS011;57301;50.328;8.542;2023-12-20T03:46:57;3.38;;;2.05;;
69970;SDS011;57301;50.328;8.542;2023-12-20T03:49:23;4.50;;;2.28;;
69970;SDS011;57301;50.328;8.542;2023-12-20T03:51:50;5.03;;;2.75;;
69970;SDS011;57301;50.328;8.542;2023-12-20T03:54:16;4.05;;;2.30;;
69970;SDS011;57301;50.328;8.542;2023-12-20T03:56:43;3.57;;;2.17;;
69970;SDS011;57301;50.328;8.542;2023-12-20T03:59:09;3.88;;;2.55;;
69970;SDS011;57301;50.328;8.542;2023-12-20T04:01:36;4.50;;;2.90;;
69970;SDS011;57301;50.328;8.542;2023-12-20T04:04:02;4.50;;;2.60;;
69970;SDS011;57301;50.328;8.542;2023-12-20T04:06:29;6.60;;;2.90;;
69970;SDS011;57301;50.328;8.542;2023-12-20T04:08:56;4.97;;;3.30;;
69970;SDS011;57301;50.328;8.542;2023-12-20T04:11:22;8.40;;;3.70;;
69970;SDS011;57301;50.328;8.542;2023-12-20T04:13:49;5.68;;;3.38;;
69970;SDS011;57301;50.328;8.542;2023-12-20T04:16:15;6.28;;;3.50;;
69970;SDS011;57301;50.328;8.542;2023-12-20T04:18:42;5.10;;;3.25;;
69970;SDS011;57301;50.328;8.542;2023-12-20T04:21:09;6.07;;;3.63;;
69970;SDS011;57301;50.328;8.542;2023-12-20T04:23:35;4.97;;;3.45;;
69970;SDS011;57301;50.328;8.542;2023-12-20T04:26:02;7.97;;;4.03;;
69970;SDS011;57301;50.328;8.542;2023-12-20T04:28:28;7.60;;;3.63;;
69970;SDS011;57301;50.328;8.542;2023-12-20T04:30:56;4.53;;;3.17;;
69970;SDS011;57301;50.328;8.542;2023-12-20T04:33:23;5.00;;;2.60;;
69970;SDS011;57301;50.328;8.542;2023-12-20T04:35:50;5.53;;;3.28;;
69970;SDS011;57301;50.328;8.542;2023-12-20T04:38:16;8.52;;;4.13;;
69970;SDS011;57301;50.328;8.542;2023-12-20T04:40:43;6.75;;;3.60;;
69970;SDS011;57301;50.328;8.542;2023-12-20T04:43:09;7.97;;;3.95;;
69970;SDS011;57301;50.328;8.542;2023-12-20T04:45:36;8.07;;;3.07;;
69970;SDS011;57301;50.328;8.542;2023-12-20T04:48:03;6.22;;;3.67;;
69970;SDS011;57301;50.328;8.542;2023-12-20T04:50:30;11.98;;;4.32;;
69970;SDS011;57301;50.328;8.542;2023-12-20T04:52:57;7.35;;;3.40;;
69970;SDS011;57301;50.328;8.542;2023-12-20T04:55:23;8.98;;;4.63;;
69970;SDS011;57301;50.328;8.542;2023-12-20T04:57:50;7.67;;;3.50;;
69970;SDS011;57301;50.328;8.542;2023-12-20T05:00:16;7.72;;;3.30;;
69970;SDS011;57301;50.328;8.542;2023-12-20T05:02:43;9.18;;;3.90;;
69970;SDS011;57301;50.328;8.542;2023-12-20T05:05:10;7.63;;;3.65;;
69970;SDS011;57301;50.328;8.542;2023-12-20T05:07:37;8.20;;;3.28;;
69970;SDS011;57301;50.328;8.542;2023-12-20T05:10:04;6.67;;;2.70;;
69970;SDS011;57301;50.328;8.542;2023-12-20T05:12:31;7.13;;;3.20;;
69970;SDS011;57301;50.328;8.542;2023-12-20T05:14:57;6.95;;;3.00;;
69970;SDS011;57301;50.328;8.542;2023-12-20T05:17:24;8.43;;;2.85;;
69970;SDS011;57301;50.328;8.542;2023-12-20T05:19:51;10.20;;;2.67;;
69970;SDS011;57301;50.328;8.542;2023-12-20T05:22:18;10.43;;;2.90;;
69970;SDS011;57301;50.328;8.542;2023-12-20T05:24:46;4.90;;;2.60;;
69970;SDS011;57301;50.328;8.542;2023-12-20T05:27:13;11.32;;;2.70;;
69970;SDS011;57301;50.328;8.542;2023-12-20T05:29:39;5.47;;;2.55;;
69970;SDS011;57301;50.328;8.542;2023-12-20T05:32:06;7.25;;;2.90;;
69970;SDS011;57301;50.328;8.542;2023-12-20T05:34:33;7.63;;;2.60;;
69970;SDS011;57301;50.328;8.542;2023-12-20T05:36:59;6.97;;;2.58;;
69970;SDS011;57301;50.328;8.542;2023-12-20T05:39:28;9.73;;;2.67;;
69970;SDS011;57301;50.328;8.542;2023-12-20T05:41:54;7.95;;;2.53;;
69970;SDS011;57301;50.328;8.542;2023-12-20T05:44:21;8.05;;;2.50;;
69970;SDS011;57301;50.328;8.542;2023-12-20T05:46:47;8.53;;;3.00;;
69970;SDS011;57301;50.328;8.542;2023-12-20T05:49:14;8.82;;;2.70;;
69970;SDS011;57301;50.328;8.542;2023-12-20T05:51:41;6.75;;;2.60;;
69970;SDS011;57301;50.328;8.542;2023-12-20T05:54:08;5.90;;;2.55;;
69970;SDS011;57301;50.328;8.542;2023-12-20T05:56:35;10.68;;;2.70;;
69970;SDS011;57301;50.328;8.542;2023-12-20T05:59:02;8.47;;;2.63;;
69970;SDS011;57301;50.328;8.542;2023-12-20T06:01:29;10.75;;;3.08;;
69970;SDS011;57301;50.328;8.542;2023-12-20T06:03:55;7.13;;;2.60;;
69970;SDS011;57301;50.328;8.542;2023-12-20T06:06:23;6.72;;;2.30;;
69970;SDS011;57301;50.328;8.542;2023-12-20T06:08:50;7.50;;;3.08;;
69970;SDS011;57301;50.328;8.542;2023-12-20T06:11:16;10.03;;;2.60;;
69970;SDS011;57301;50.328;8.542;2023-12-20T06:13:43;10.90;;;2.67;;
69970;SDS011;57301;50.328;8.542;2023-12-20T06:16:09;10.07;;;2.70;;
69970;SDS011;57301;50.328;8.542;2023-12-20T06:18:36;8.95;;;2.58;;
69970;SDS011;57301;50.328;8.542;2023-12-20T06:21:03;7.43;;;2.35;;
69970;SDS011;57301;50.328;8.542;2023-12-20T06:23:30;6.20;;;2.30;;
69970;SDS011;57301;50.328;8.542;2023-12-20T06:25:57;9.70;;;2.75;;
69970;SDS011;57301;50.328;8.542;2023-12-20T06:28:24;10.02;;;2.90;;
69970;SDS011;57301;50.328;8.542;2023-12-20T06:30:50;9.38;;;2.28;;
69970;SDS011;57301;50.328;8.542;2023-12-20T06:33:19;7.38;;;2.33;;
69970;SDS011;57301;50.328;8.542;2023-12-20T06:35:47;8.67;;;2.40;;
69970;SDS011;57301;50.328;8.542;2023-12-20T06:38:14;8.10;;;2.45;;
69970;SDS011;57301;50.328;8.542;2023-12-20T06:40:41;9.32;;;2.28;;
69970;SDS011;57301;50.328;8.542;2023-12-20T06:43:09;5.55;;;2.30;;
69970;SDS011;57301;50.328;8.542;2023-12-20T06:45:49;8.57;;;2.60;;
69970;SDS011;57301;50.328;8.542;2023-12-20T06:48:15;8.87;;;2.43;;
69970;SDS011;57301;50.328;8.542;2023-12-20T06:50:42;11.07;;;2.50;;
69970;SDS011;57301;50.328;8.542;2023-12-20T06:53:08;7.68;;;2.50;;
69970;SDS011;57301;50.328;8.542;2023-12-20T06:55:35;7.45;;;2.30;;
69970;SDS011;57301;50.328;8.542;2023-12-20T06:58:04;5.80;;;2.30;;
69970;SDS011;57301;50.328;8.542;2023-12-20T07:00:31;10.27;;;2.63;;
69970;SDS011;57301;50.328;8.542;2023-12-20T07:02:58;7.88;;;2.88;;
69970;SDS011;57301;50.328;8.542;2023-12-20T07:05:25;11.25;;;3.28;;
69970;SDS011;57301;50.328;8.542;2023-12-20T07:07:52;10.40;;;2.55;;
69970;SDS011;57301;50.328;8.542;2023-12-20T07:10:20;6.95;;;2.45;;
69970;SDS011;57301;50.328;8.542;2023-12-20T07:12:46;8.33;;;2.70;;
69970;SDS011;57301;50.328;8.542;2023-12-20T07:15:15;11.50;;;3.13;;
69970;SDS011;57301;50.328;8.542;2023-12-20T07:17:41;7.95;;;2.65;;
69970;SDS011;57301;50.328;8.542;2023-12-20T07:20:09;11.18;;;2.88;;
69970;SDS011;57301;50.328;8.542;2023-12-20T07:22:37;6.40;;;2.80;;
69970;SDS011;57301;50.328;8.542;2023-12-20T07:25:04;5.60;;;2.30;;
69970;SDS011;57301;50.328;8.542;2023-12-20T07:27:31;9.57;;;2.80;;
69970;SDS011;57301;50.328;8.542;2023-12-20T07:29:57;8.88;;;2.53;;
69970;SDS011;57301;50.328;8.542;2023-12-20T07:32:24;4.45;;;2.25;;
69970;SDS011;57301;50.328;8.542;2023-12-20T07:34:51;8.82;;;2.50;;
69970;SDS011;57301;50.328;8.542;2023-12-20T07:37:18;8.83;;;2.80;;
69970;SDS011;57301;50.328;8.542;2023-12-20T07:39:44;5.80;;;2.67;;
69970;SDS011;57301;50.328;8.542;2023-12-20T07:42:11;8.93;;;2.40;;
69970;SDS011;57301;50.328;8.542;2023-12-20T07:44:37;7.43;;;2.80;;
69970;SDS011;57301;50.328;8.542;2023-12-20T07:47:04;9.20;;;3.13;;
69970;SDS011;57301;50.328;8.542;2023-12-20T07:49:31;5.30;;;2.40;;
69970;SDS011;57301;50.328;8.542;2023-12-20T07:51:58;8.23;;;2.88;;
69970;SDS011;57301;50.328;8.542;2023-12-20T07:54:25;9.27;;;2.78;;
69970;SDS011;57301;50.328;8.542;2023-12-20T07:56:52;8.02;;;2.40;;
69970;SDS011;57301;50.328;8.542;2023-12-20T07:59:21;5.65;;;2.60;;
69970;SDS011;57301;50.328;8.542;2023-12-20T08:01:58;8.63;;;2.67;;
69970;SDS011;57301;50.328;8.542;2023-12-20T08:04:25;8.57;;;2.60;;
69970;SDS011;57301;50.328;8.542;2023-12-20T08:06:51;7.75;;;2.50;;
69970;SDS011;57301;50.328;8.542;2023-12-20T08:09:18;6.18;;;2.38;;
69970;SDS011;57301;50.328;8.542;2023-12-20T08:11:48;9.10;;;2.85;;
69970;SDS011;57301;50.328;8.542;2023-12-20T08:14:15;5.67;;;2.27;;
69970;SDS011;57301;50.328;8.542;2023-12-20T08:16:44;5.40;;;2.47;;
69970;SDS011;57301;50.328;8.542;2023-12-20T08:19:11;7.22;;;2.53;;
69970;SDS011;57301;50.328;8.542;2023-12-20T08:21:38;5.28;;;2.17;;
69970;SDS011;57301;50.328;8.542;2023-12-20T08:24:05;13.00;;;5.00;;
69970;SDS011;57301;50.328;8.542;2023-12-20T08:26:32;8.73;;;2.87;;
69970;SDS011;57301;50.328;8.542;2023-12-20T08:28:59;11.90;;;2.40;;
69970;SDS011;57301;50.328;8.542;2023-12-20T08:31:28;7.70;;;2.65;;
69970;SDS011;57301;50.328;8.542;2023-12-20T08:33:55;9.20;;;3.30;;
69970;SDS011;57301;50.328;8.542;2023-12-20T08:36:22;7.05;;;2.30;;
69970;SDS011;57301;50.328;8.542;2023-12-20T08:38:49;9.07;;;2.30;;
69970;SDS011;57301;50.328;8.542;2023-12-20T08:41:16;10.73;;;2.67;;
69970;SDS011;57301;50.328;8.542;2023-12-20T08:43:44;6.45;;;2.60;;
69970;SDS011;57301;50.328;8.542;2023-12-20T08:46:10;6.25;;;2.50;;
69970;SDS011;57301;50.328;8.542;2023-12-20T08:48:38;7.78;;;2.08;;
69970;SDS011;57301;50.328;8.542;2023-12-20T08:51:05;4.13;;;2.10;;
69970;SDS011;57301;50.328;8.542;2023-12-20T08:53:34;7.30;;;2.65;;
69970;SDS011;57301;50.328;8.542;2023-12-20T08:56:01;9.88;;;2.80;;
69970;SDS011;57301;50.328;8.542;2023-12-20T08:58:28;11.50;;;3.58;;
69970;SDS011;57301;50.328;8.542;2023-12-20T09:00:55;9.07;;;2.20;;
69970;SDS011;57301;50.328;8.542;2023-12-20T09:03:23;6.27;;;2.40;;
69970;SDS011;57301;50.328;8.542;2023-12-20T09:05:50;14.75;;;2.85;;
69970;SDS011;57301;50.328;8.542;2023-12-20T09:08:17;11.02;;;2.40;;
69970;SDS011;57301;50.328;8.542;2023-12-20T09:10:43;6.80;;;2.45;;
69970;SDS011;57301;50.328;8.542;2023-12-20T09:13:10;8.35;;;3.00;;
69970;SDS011;57301;50.328;8.542;2023-12-20T09:15:37;13.97;;;5.00;;
69970;SDS011;57301;50.328;8.542;2023-12-20T09:18:04;11.73;;;3.45;;
69970;SDS011;57301;50.328;8.542;2023-12-20T09:20:31;5.93;;;2.58;;
69970;SDS011;57301;50.328;8.542;2023-12-20T09:22:58;7.28;;;2.17;;
69970;SDS011;57301;50.328;8.542;2023-12-20T09:25:24;6.85;;;2.17;;
69970;SDS011;57301;50.328;8.542;2023-12-20T09:27:52;10.00;;;2.90;;
69970;SDS011;57301;50.328;8.542;2023-12-20T09:30:19;11.27;;;3.03;;
69970;SDS011;57301;50.328;8.542;2023-12-20T09:32:53;7.72;;;2.40;;
69970;SDS011;57301;50.328;8.542;2023-12-20T09:35:20;11.32;;;2.30;;
69970;SDS011;57301;50.328;8.542;2023-12-20T09:37:47;9.65;;;2.97;;
69970;SDS011;57301;50.328;8.542;2023-12-20T09:40:14;10.03;;;3.10;;
69970;SDS011;57301;50.328;8.542;2023-12-20T09:42:54;11.40;;;3.10;;
69970;SDS011;57301;50.328;8.542;2023-12-20T09:45:23;6.05;;;2.20;;
69970;SDS011;57301;50.328;8.542;2023-12-20T09:47:51;4.72;;;2.00;;
69970;SDS011;57301;50.328;8.542;2023-12-20T09:50:20;6.82;;;2.10;;
69970;SDS011;57301;50.328;8.542;2023-12-20T09:52:52;6.40;;;2.40;;
69970;SDS011;57301;50.328;8.542;2023-12-20T09:55:22;8.18;;;2.65;;
69970;SDS011;57301;50.328;8.542;2023-12-20T09:57:51;8.10;;;2.42;;
69970;SDS011;57301;50.328;8.542;2023-12-20T10:00:18;12.85;;;2.70;;
69970;SDS011;57301;50.328;8.542;2023-12-20T10:02:55;6.97;;;2.38;;
69970;SDS011;57301;50.328;8.542;2023-12-20T10:05:27;5.63;;;1.90;;
69970;SDS011;57301;50.328;8.542;2023-12-20T10:07:55;10.85;;;2.60;;
69970;SDS011;57301;50.328;8.542;2023-12-20T10:10:22;8.48;;;2.38;;
69970;SDS011;57301;50.328;8.542;2023-12-20T10:13:03;11.02;;;4.32;;
69970;SDS011;57301;50.328;8.542;2023-12-20T10:15:34;6.65;;;3.00;;
69970;SDS011;57301;50.328;8.542;2023-12-20T10:18:02;8.80;;;2.97;;
69970;SDS011;57301;50.328;8.542;2023-12-20T10:20:30;7.88;;;2.35;;
69970;SDS011;57301;50.328;8.542;2023-12-20T10:22:57;7.15;;;2.97;;
69970;SDS011;57301;50.328;8.542;2023-12-20T10:25:25;9.30;;;2.55;;
69970;SDS011;57301;50.328;8.542;2023-12-20T10:28:09;9.95;;;3.13;;
69970;SDS011;57301;50.328;8.542;2023-12-20T10:30:40;6.50;;;2.60;;
69970;SDS011;57301;50.328;8.542;2023-12-20T10:33:08;8.00;;;2.63;;
69970;SDS011;57301;50.328;8.542;2023-12-20T10:35:37;6.85;;;2.58;;
69970;SDS011;57301;50.328;8.542;2023-12-20T10:38:07;5.90;;;2.50;;
69970;SDS011;57301;50.328;8.542;2023-12-20T10:40:34;6.55;;;2.13;;
69970;SDS011;57301;50.328;8.542;2023-12-20T10:43:03;7.27;;;2.30;;
69970;SDS011;57301;50.328;8.542;2023-12-20T10:45:30;6.68;;;2.25;;
69970;SDS011;57301;50.328;8.542;2023-12-20T10:47:57;8.65;;;3.22;;
69970;SDS011;57301;50.328;8.542;2023-12-20T10:50:26;5.95;;;2.60;;
69970;SDS011;57301;50.328;8.542;2023-12-20T10:52:54;8.35;;;2.33;;
69970;SDS011;57301;50.328;8.542;2023-12-20T10:55:22;8.20;;;2.70;;
69970;SDS011;57301;50.328;8.542;2023-12-20T10:57:54;7.60;;;2.63;;
69970;SDS011;57301;50.328;8.542;2023-12-20T11:00:28;8.02;;;2.30;;
69970;SDS011;57301;50.328;8.542;2023-12-20T11:03:00;6.82;;;2.50;;
69970;SDS011;57301;50.328;8.542;2023-12-20T11:05:38;6.90;;;2.85;;
69970;SDS011;57301;50.328;8.542;2023-12-20T11:08:20;6.00;;;2.60;;
69970;SDS011;57301;50.328;8.542;2023-12-20T11:13:32;9.18;;;2.30;;
69970;SDS011;57301;50.328;8.542;2023-12-20T11:16:03;6.15;;;2.13;;
69970;SDS011;57301;50.328;8.542;2023-12-20T11:18:31;7.03;;;2.38;;
69970;SDS011;57301;50.328;8.542;2023-12-20T11:21:01;7.07;;;2.53;;
69970;SDS011;57301;50.328;8.542;2023-12-20T11:23:30;7.75;;;2.60;;
69970;SDS011;57301;50.328;8.542;2023-12-20T11:26:00;9.52;;;3.35;;
69970;SDS011;57301;50.328;8.542;2023-12-20T11:28:28;5.00;;;2.10;;
69970;SDS011;57301;50.328;8.542;2023-12-20T11:31:00;6.88;;;2.45;;
69970;SDS011;57301;50.328;8.542;2023-12-20T11:33:36;7.77;;;2.90;;
69970;SDS011;57301;50.328;8.542;2023-12-20T11:36:03;8.18;;;2.88;;
69970;SDS011;57301;50.328;8.542;2023-12-20T11:38:39;4.97;;;2.17;;
69970;SDS011;57301;50.328;8.542;2023-12-20T11:41:22;11.25;;;3.33;;
69970;SDS011;57301;50.328;8.542;2023-12-20T11:43:52;9.13;;;3.08;;
69970;SDS011;57301;50.328;8.542;2023-12-20T11:46:19;5.97;;;2.37;;
69970;SDS011;57301;50.328;8.542;2023-12-20T11:48:47;6.88;;;2.75;;
69970;SDS011;57301;50.328;8.542;2023-12-20T11:51:14;6.78;;;2.35;;
69970;SDS011;57301;50.328;8.542;2023-12-20T11:53:41;8.48;;;2.88;;
69970;SDS011;57301;50.328;8.542;2023-12-20T11:56:11;11.70;;;2.63;;
69970;SDS011;57301;50.328;8.542;2023-12-20T11:58:38;7.53;;;2.70;;
69970;SDS011;57301;50.328;8.542;2023-12-20T12:01:05;7.25;;;2.53;;
69970;SDS011;57301;50.328;8.542;2023-12-20T12:03:34;5.65;;;2.63;;
69970;SDS011;57301;50.328;8.542;2023-12-20T12:06:01;7.03;;;2.83;;
69970;SDS011;57301;50.328;8.542;2023-12-20T12:08:31;6.75;;;2.80;;
69970;SDS011;57301;50.328;8.542;2023-12-20T12:10:58;6.67;;;2.33;;
69970;SDS011;57301;50.328;8.542;2023-12-20T12:13:24;9.60;;;2.85;;
69970;SDS011;57301;50.328;8.542;2023-12-20T12:15:53;6.57;;;2.50;;
69970;SDS011;57301;50.328;8.542;2023-12-20T12:18:20;5.93;;;2.63;;
69970;SDS011;57301;50.328;8.542;2023-12-20T12:20:47;11.07;;;2.70;;
69970;SDS011;57301;50.328;8.542;2023-12-20T12:23:14;9.10;;;2.20;;
69970;SDS011;57301;50.328;8.542;2023-12-20T12:25:40;7.63;;;2.50;;
69970;SDS011;57301;50.328;8.542;2023-12-20T12:28:09;7.18;;;2.65;;
69970;SDS011;57301;50.328;8.542;2023-12-20T12:30:36;6.68;;;2.75;;
69970;SDS011;57301;50.328;8.542;2023-12-20T12:33:11;5.82;;;2.35;;
69970;SDS011;57301;50.328;8.542;2023-12-20T12:35:39;8.47;;;2.67;;
69970;SDS011;57301;50.328;8.542;2023-12-20T12:38:06;6.25;;;2.38;;
69970;SDS011;57301;50.328;8.542;2023-12-20T12:40:34;6.43;;;2.28;;
69970;SDS011;57301;50.328;8.542;2023-12-20T12:43:02;7.78;;;3.25;;
69970;SDS011;57301;50.328;8.542;2023-12-20T12:45:30;7.22;;;3.35;;
69970;SDS011;57301;50.328;8.542;2023-12-20T12:47:57;6.10;;;2.30;;
69970;SDS011;57301;50.328;8.542;2023-12-20T12:50:23;8.52;;;2.70;;
69970;SDS011;57301;50.328;8.542;2023-12-20T12:52:51;6.32;;;2.30;;
69970;SDS011;57301;50.328;8.542;2023-12-20T12:55:17;7.85;;;2.55;;
69970;SDS011;57301;50.328;8.542;2023-12-20T12:57:44;8.77;;;2.58;;
69970;SDS011;57301;50.328;8.542;2023-12-20T13:00:11;9.43;;;2.50;;
69970;SDS011;57301;50.328;8.542;2023-12-20T13:02:38;5.95;;;2.60;;
69970;SDS011;57301;50.328;8.542;2023-12-20T13:05:08;8.10;;;3.35;;
69970;SDS011;57301;50.328;8.542;2023-12-20T13:07:35;16.17;;;6.60;;
69970;SDS011;57301;50.328;8.542;2023-12-20T13:10:04;10.07;;;2.53;;
69970;SDS011;57301;50.328;8.542;2023-12-20T13:12:32;5.07;;;2.60;;
69970;SDS011;57301;50.328;8.542;2023-12-20T13:14:58;5.70;;;2.47;;
69970;SDS011;57301;50.328;8.542;2023-12-20T13:17:25;6.40;;;2.45;;
69970;SDS011;57301;50.328;8.542;2023-12-20T13:19:54;7.90;;;2.75;;
69970;SDS011;57301;50.328;8.542;2023-12-20T13:22:21;6.88;;;2.50;;
69970;SDS011;57301;50.328;8.542;2023-12-20T13:24:47;9.17;;;3.10;;
69970;SDS011;57301;50.328;8.542;2023-12-20T13:27:14;7.57;;;2.40;;
69970;SDS011;57301;50.328;8.542;2023-12-20T13:29:40;5.80;;;2.65;;
69970;SDS011;57301;50.328;8.542;2023-12-20T13:32:07;9.18;;;2.60;;
69970;SDS011;57301;50.328;8.542;2023-12-20T13:34:34;5.47;;;2.80;;
69970;SDS011;57301;50.328;8.542;2023-12-20T13:37:00;6.40;;;3.07;;
69970;SDS011;57301;50.328;8.542;2023-12-20T13:39:27;8.82;;;2.92;;
69970;SDS011;57301;50.328;8.542;2023-12-20T13:41:54;10.05;;;3.30;;
69970;SDS011;57301;50.328;8.542;2023-12-20T13:44:23;8.73;;;3.03;;
69970;SDS011;57301;50.328;8.542;2023-12-20T13:46:51;8.48;;;2.50;;
69970;SDS011;57301;50.328;8.542;2023-12-20T13:49:17;10.07;;;3.17;;
69970;SDS011;57301;50.328;8.542;2023-12-20T13:51:44;9.32;;;2.92;;
69970;SDS011;57301;50.328;8.542;2023-12-20T13:54:10;8.07;;;2.97;;
69970;SDS011;57301;50.328;8.542;2023-12-20T13:56:37;7.38;;;2.80;;
69970;SDS011;57301;50.328;8.542;2023-12-20T13:59:17;8.52;;;3.17;;
69970;SDS011;57301;50.328;8.542;2023-12-20T14:01:44;8.57;;;3.17;;
69970;SDS011;57301;50.328;8.542;2023-12-20T14:04:10;5.85;;;2.67;;
69970;SDS011;57301;50.328;8.542;2023-12-20T14:06:57;10.85;;;2.90;;
69970;SDS011;57301;50.328;8.542;2023-12-20T14:09:24;7.78;;;2.83;;
69970;SDS011;57301;50.328;8.542;2023-12-20T14:11:51;6.10;;;2.70;;
69970;SDS011;57301;50.328;8.542;2023-12-20T14:14:18;6.90;;;2.73;;
69970;SDS011;57301;50.328;8.542;2023-12-20T14:16:44;9.75;;;3.30;;
69970;SDS011;57301;50.328;8.542;2023-12-20T14:19:11;6.38;;;2.88;;
69970;SDS011;57301;50.328;8.542;2023-12-20T14:21:38;6.22;;;2.80;;
69970;SDS011;57301;50.328;8.542;2023-12-20T14:24:05;8.43;;;2.80;;
69970;SDS011;57301;50.328;8.542;2023-12-20T14:26:31;6.90;;;3.03;;
69970;SDS011;57301;50.328;8.542;2023-12-20T14:28:58;7.53;;;3.00;;
69970;SDS011;57301;50.328;8.542;2023-12-20T14:31:25;9.23;;;2.90;;
69970;SDS011;57301;50.328;8.542;2023-12-20T14:33:51;6.82;;;2.92;;
69970;SDS011;57301;50.328;8.542;2023-12-20T14:36:20;9.20;;;2.72;;
69970;SDS011;57301;50.328;8.542;2023-12-20T14:38:47;10.20;;;3.60;;
69970;SDS011;57301;50.328;8.542;2023-12-20T14:41:16;9.18;;;3.25;;
69970;SDS011;57301;50.328;8.542;2023-12-20T14:43:44;9.55;;;3.03;;
69970;SDS011;57301;50.328;8.542;2023-12-20T14:46:11;9.85;;;2.80;;
69970;SDS011;57301;50.328;8.542;2023-12-20T14:48:38;9.23;;;2.60;;
69970;SDS011;57301;50.328;8.542;2023-12-20T14:51:04;7.10;;;2.43;;